Time;durP1;ratioP1;P1;durP2;ratioP2;P2;SDS_P1;SDS_P2;PMS_P1;PMS_P2;Temp;Humidity;BMP_temperature;BMP_pressure;BME280_temperature;BME280_humidity;BME280_pressure;Samples;Min_cycle;Max_cycle;Signal;HPM_P1;HPM_P2
2022/10/14 00:01:12;;;;;;;37.35;17.88;;;;;;;14.29;100.00;100694.81;4941226;29;20448;-85
2022/10/14 00:03:39;;;;;;;37.75;18.40;;;;;;;14.34;100.00;100697.81;4939985;29;20470;-84
2022/10/14 00:06:26;;;;;;;36.30;16.73;;;;;;;14.57;100.00;100695.91;4940679;29;20082;-86
2022/10/14 00:08:52;;;;;;;37.15;18.00;;;;;;;14.52;100.00;100698.28;4940741;29;20375;-83
2022/10/14 00:11:21;;;;;;;31.48;15.45;;;;;;;14.38;100.00;100701.78;4941139;29;20032;-84
2022/10/14 00:13:48;;;;;;;34.35;17.45;;;;;;;14.12;100.00;100693.34;4942658;29;20445;-86
2022/10/14 00:16:22;;;;;;;33.33;17.83;;;;;;;14.07;100.00;100701.03;4940694;29;20039;-86
2022/10/14 00:18:48;;;;;;;36.45;17.95;;;;;;;14.03;100.00;100695.22;4940418;29;20036;-84
2022/10/14 00:21:44;;;;;;;38.53;17.48;;;;;;;14.05;100.00;100698.56;4942441;29;20024;-84
2022/10/14 00:24:12;;;;;;;29.30;16.80;;;;;;;14.19;100.00;100696.91;4940802;29;20051;-85
2022/10/14 00:26:39;;;;;;;36.85;17.50;;;;;;;14.21;100.00;100692.25;4940904;29;20043;-86
2022/10/14 00:29:10;;;;;;;38.13;17.65;;;;;;;14.10;100.00;100696.16;5080960;23;20070;-85
2022/10/14 00:31:36;;;;;;;38.78;17.98;;;;;;;14.02;100.00;100695.44;4966676;23;20078;-88
2022/10/14 00:34:02;;;;;;;29.25;17.55;;;;;;;14.08;100.00;100690.19;4941442;29;20059;-87
2022/10/14 00:36:31;;;;;;;40.78;18.50;;;;;;;13.95;100.00;100682.78;4932741;29;20043;-88
2022/10/14 00:39:03;;;;;;;34.42;17.60;;;;;;;14.08;100.00;100684.88;4954938;29;20039;-88
2022/10/14 00:41:32;;;;;;;32.10;17.63;;;;;;;14.18;100.00;100680.13;4942100;29;20144;-89
2022/10/14 00:44:26;;;;;;;31.48;17.65;;;;;;;13.94;100.00;100681.16;4942117;29;20095;-88
2022/10/14 00:46:53;;;;;;;38.95;18.35;;;;;;;13.93;100.00;100682.16;4940957;29;20067;-88
2022/10/14 00:49:33;;;;;;;33.08;18.60;;;;;;;14.04;100.00;100688.06;4941061;29;20051;-88
2022/10/14 00:52:03;;;;;;;31.38;17.45;;;;;;;13.95;100.00;100680.13;4939361;29;20086;-87
2022/10/14 00:54:36;;;;;;;26.80;12.93;;;;;;;13.94;100.00;100673.16;4940739;29;20036;-88
2022/10/14 00:57:03;;;;;;;34.25;18.65;;;;;;;13.81;100.00;100670.28;4982454;23;20138;-88
2022/10/14 00:59:30;;;;;;;35.25;18.23;;;;;;;13.64;100.00;100667.91;4938813;29;20542;-88
2022/10/14 01:01:56;;;;;;;30.67;18.70;;;;;;;13.45;100.00;100667.41;4922898;29;20187;-86
2022/10/14 01:04:22;;;;;;;33.53;19.23;;;;;;;13.32;100.00;100651.16;4956542;29;20051;-86
2022/10/14 01:07:03;;;;;;;30.50;18.65;;;;;;;13.31;100.00;100659.34;4955915;29;20074;-87
2022/10/14 01:09:51;;;;;;;35.58;17.80;;;;;;;13.36;100.00;100651.63;4941983;29;20152;-87
2022/10/14 01:12:55;;;;;;;32.80;16.98;;;;;;;13.45;100.00;100645.28;4941361;29;20414;-88
2022/10/14 01:15:27;;;;;;;29.73;18.20;;;;;;;13.45;100.00;100634.63;4942847;29;20047;-86
2022/10/14 01:18:01;;;;;;;49.87;18.87;;;;;;;13.51;100.00;100644.56;4940637;29;20028;-87
2022/10/14 01:20:36;;;;;;;37.38;16.67;;;;;;;13.74;100.00;100633.88;4940867;29;20433;-88
2022/10/14 01:23:10;;;;;;;35.00;19.02;;;;;;;13.54;100.00;100636.22;4940834;29;20047;-88
2022/10/14 01:25:43;;;;;;;33.13;17.45;;;;;;;13.48;100.00;100639.59;4940585;29;20044;-89
2022/10/14 01:28:49;;;;;;;27.15;12.77;;;;;;;13.48;100.00;100628.94;4924551;29;20409;-88
2022/10/14 01:31:24;;;;;;;34.55;19.08;;;;;;;13.49;100.00;100630.56;5121362;23;20051;-89
2022/10/14 01:33:55;;;;;;;36.30;19.08;;;;;;;13.52;100.00;100624.91;4936918;29;20056;-87
2022/10/14 01:36:32;;;;;;;37.17;17.83;;;;;;;13.67;100.00;100623.13;4937094;29;20061;-88
2022/10/14 01:39:26;;;;;;;36.22;18.23;;;;;;;13.68;100.00;100622.13;4938583;29;20058;-90
2022/10/14 01:42:01;;;;;;;28.75;17.20;;;;;;;13.72;100.00;100615.41;4955629;29;20040;-87
2022/10/14 01:44:29;;;;;;;38.53;19.08;;;;;;;13.79;100.00;100620.84;4960685;29;20115;-90
2022/10/14 01:46:56;;;;;;;34.75;18.52;;;;;;;13.57;100.00;100622.53;4944974;29;20015;-88
2022/10/14 01:49:36;;;;;;;33.50;19.30;;;;;;;13.74;100.00;100617.91;4944618;29;20074;-89
2022/10/14 01:52:21;;;;;;;37.50;19.30;;;;;;;13.73;100.00;100622.41;4952657;29;20071;-82
2022/10/14 01:55:44;;;;;;;36.03;19.00;;;;;;;13.61;100.00;100617.69;4956743;29;20066;-81
2022/10/14 01:58:18;;;;;;;34.90;18.67;;;;;;;13.49;100.00;100619.91;4951339;29;20133;-81
2022/10/14 02:01:51;;;;;;;35.00;19.33;;;;;;;13.50;100.00;100621.59;4941408;29;20067;-82
2022/10/14 02:05:04;;;;;;;34.97;20.25;;;;;;;13.44;100.00;100623.13;4955988;29;20425;-81
2022/10/14 02:08:22;;;;;;;38.20;19.05;;;;;;;13.77;100.00;100633.50;4957226;29;20040;-80
2022/10/14 02:11:21;;;;;;;37.95;18.95;;;;;;;13.91;100.00;100625.56;4883011;29;20046;-79
2022/10/14 02:14:23;;;;;;;32.30;17.77;;;;;;;13.85;100.00;100625.47;4954142;29;20040;-80
2022/10/14 02:17:24;;;;;;;33.85;19.08;;;;;;;14.04;100.00;100618.78;4952603;29;20046;-79
2022/10/14 02:20:36;;;;;;;33.67;18.42;;;;;;;14.14;100.00;100614.00;4937221;29;20055;-83
2022/10/14 02:23:43;;;;;;;33.00;18.77;;;;;;;14.03;100.00;100611.78;4957531;29;20059;-81
2022/10/14 02:26:48;;;;;;;32.25;18.52;;;;;;;13.89;100.00;100616.91;4944221;29;20044;-82
2022/10/14 02:29:16;;;;;;;;;;;;;;;13.76;100.00;100616.69;4951073;29;20051;-83
2022/10/14 02:32:22;;;;;;;30.63;18.50;;;;;;;13.78;100.00;100614.69;4954305;29;19918;-81
2022/10/14 02:35:23;;;;;;;34.00;19.53;;;;;;;13.91;100.00;100612.25;4956487;29;20071;-82
2022/10/14 02:37:58;;;;;;;33.60;18.63;;;;;;;13.82;100.00;100605.31;4943102;29;20374;-81
2022/10/14 02:41:03;;;;;;;37.35;19.10;;;;;;;13.63;100.00;100599.69;4956484;29;20099;-81
2022/10/14 02:44:02;;;;;;;37.55;20.08;;;;;;;13.62;100.00;100603.38;4924607;29;20111;-81
2022/10/14 02:46:43;;;;;;;35.20;20.02;;;;;;;13.49;100.00;100603.94;4955370;29;20119;-80
2022/10/14 02:49:18;;;;;;;36.05;19.73;;;;;;;13.68;100.00;100605.31;4950222;29;20054;-81
2022/10/14 02:52:36;;;;;;;40.75;19.58;;;;;;;13.70;100.00;100598.78;4955923;29;20036;-82
2022/10/14 02:55:37;;;;;;;37.10;18.75;;;;;;;13.69;100.00;100594.44;5072977;23;20041;-82
2022/10/14 02:58:35;;;;;;;26.60;14.13;;;;;;;13.68;100.00;100597.31;4955632;29;20081;-81
2022/10/14 03:01:14;;;;;;;43.17;19.35;;;;;;;13.48;100.00;100597.00;4940968;29;20048;-81
2022/10/14 03:04:03;;;;;;;46.92;20.27;;;;;;;13.44;100.00;100593.03;4953765;29;20502;-82
2022/10/14 03:07:06;;;;;;;35.90;20.25;;;;;;;13.44;100.00;100590.34;4946959;29;20048;-81
2022/10/14 03:09:51;;;;;;;45.13;19.95;;;;;;;13.33;100.00;100604.06;4954391;29;20096;-81
2022/10/14 03:12:21;;;;;;;39.00;20.58;;;;;;;13.27;100.00;100591.47;4925220;29;20052;-83
2022/10/14 03:15:25;;;;;;;35.92;21.35;;;;;;;13.10;100.00;100596.09;4955877;29;20036;-82
2022/10/14 03:18:28;;;;;;;42.78;21.75;;;;;;;13.13;100.00;100606.38;4920888;29;20079;-81
2022/10/14 03:21:32;;;;;;;38.08;19.85;;;;;;;13.33;100.00;100604.91;4944595;29;20068;-81
2022/10/14 03:24:29;;;;;;;36.72;18.73;;;;;;;13.41;100.00;100604.03;4955739;29;20052;-80
2022/10/14 03:30:12;;;;;;;43.55;19.88;;;;;;;13.30;100.00;100602.59;4955389;29;20044;-81
2022/10/14 03:33:20;;;;;;;37.85;21.45;;;;;;;13.13;100.00;100592.25;4943969;29;20040;-81
2022/10/14 03:36:46;;;;;;;40.25;21.13;;;;;;;12.94;100.00;100597.00;4950238;29;20086;-80
2022/10/14 03:39:24;;;;;;;40.83;21.08;;;;;;;12.97;100.00;100603.78;4949128;29;20055;-81
2022/10/14 03:42:30;;;;;;;38.03;20.88;;;;;;;13.12;100.00;100601.25;4955819;29;20047;-82
2022/10/14 03:48:11;;;;;;;37.67;21.25;;;;;;;13.26;100.00;100611.09;4936251;29;20056;-81
2022/10/14 03:51:22;;;;;;;48.45;21.33;;;;;;;13.07;100.00;100608.88;4932215;29;20048;-80
2022/10/14 03:54:14;;;;;;;43.17;23.42;;;;;;;12.88;100.00;100616.31;4934724;29;20107;-82
2022/10/14 03:59:53;;;;;;;46.72;24.30;;;;;;;12.96;100.00;100607.44;4903520;26;20039;-83
2022/10/14 04:02:40;;;;;;;42.83;23.13;;;;;;;13.07;100.00;100614.22;4952484;29;20040;-85
2022/10/14 04:05:44;;;;;;;47.72;23.00;;;;;;;13.15;100.00;100607.06;4949004;29;20043;-81
2022/10/14 04:08:33;;;;;;;48.85;22.95;;;;;;;13.02;100.00;100606.78;4949619;29;20047;-81
2022/10/14 04:11:21;;;;;;;46.90;22.80;;;;;;;12.92;100.00;100601.69;4951192;29;20111;-82
2022/10/14 04:21:55;;;;;;;39.90;17.58;;;;;;;12.82;100.00;100605.56;4897313;26;20047;-81
2022/10/14 04:24:44;;;;;;;45.78;23.75;;;;;;;12.75;100.00;100597.44;4943307;29;20032;-80
2022/10/14 04:27:12;;;;;;;47.72;25.63;;;;;;;12.78;100.00;100594.44;4941572;29;20075;-82
2022/10/14 04:38:38;;;;;;;51.27;26.83;;;;;;;13.23;100.00;100598.16;4777196;23;20304;-81
2022/10/14 04:41:41;;;;;;;44.85;23.75;;;;;;;13.25;100.00;100612.97;4958341;29;20295;-84
2022/10/14 04:44:30;;;;;;;51.13;25.45;;;;;;;12.87;100.00;100604.00;4945712;29;20036;-82
2022/10/14 04:55:44;;;;;;;58.30;26.73;;;;;;;12.68;100.00;100596.47;4429557;27;20052;-82
2022/10/14 04:58:19;;;;;;;54.47;28.00;;;;;;;12.64;100.00;100600.47;4940869;23;20304;-82
2022/10/14 05:11:56;;;;;;;54.30;25.85;;;;;;;12.64;100.00;100591.66;4979692;23;20059;-83
2022/10/14 05:14:45;;;;;;;60.47;25.80;;;;;;;12.82;100.00;100584.28;4933914;29;20048;-90
2022/10/14 05:17:21;;;;;;;50.25;25.17;;;;;;;12.93;100.00;100582.03;4913354;29;20095;-91
2022/10/14 05:19:53;;;;;;;45.30;23.55;;;;;;;12.91;100.00;100585.88;4935147;29;20111;-90
2022/10/14 05:22:24;;;;;;;51.50;24.38;;;;;;;12.96;100.00;100583.50;4962974;28;20392;-90
2022/10/14 05:24:50;;;;;;;55.47;25.20;;;;;;;12.77;100.00;100587.44;4963528;28;20070;-91
2022/10/14 05:27:19;;;;;;;62.78;28.02;;;;;;;12.92;100.00;100590.19;4926928;29;20039;-91
2022/10/14 05:29:45;;;;;;;56.33;24.90;;;;;;;12.94;100.00;100588.19;4941169;29;20035;-90
2022/10/14 05:32:15;;;;;;;54.35;26.23;;;;;;;12.93;100.00;100587.34;4942831;29;20063;-92
2022/10/14 05:34:46;;;;;;;60.05;26.63;;;;;;;12.85;100.00;100595.41;4948282;29;20505;-91
2022/10/14 05:37:27;;;;;;;53.83;25.27;;;;;;;12.56;100.00;100605.81;4946015;29;20120;-92
2022/10/14 05:40:19;;;;;;;55.88;26.92;;;;;;;12.46;100.00;100599.91;4927883;29;20562;-91
2022/10/14 05:43:02;;;;;;;52.40;28.23;;;;;;;12.38;100.00;100602.59;4956046;23;20079;-91
2022/10/14 05:45:38;;;;;;;52.53;26.60;;;;;;;12.47;100.00;100601.53;4954104;29;20044;-88
2022/10/14 05:48:04;;;;;;;56.47;27.30;;;;;;;12.48;100.00;100603.22;4942732;29;20039;-88
2022/10/14 05:50:29;;;;;;;51.28;25.42;;;;;;;12.54;100.00;100597.19;4925973;29;20382;-89
2022/10/14 05:53:00;;;;;;;50.08;26.45;;;;;;;12.64;100.00;100595.16;4923538;29;20478;-86
2022/10/14 05:55:33;;;;;;;;;;;;;;;12.56;100.00;100597.84;4939476;29;20044;-88
2022/10/14 05:58:01;;;;;;;49.65;25.77;;;;;;;12.55;100.00;100593.56;4943116;29;19918;-88
2022/10/14 06:00:32;;;;;;;50.70;25.80;;;;;;;12.65;100.00;100594.16;4932027;29;20040;-88
2022/10/14 06:03:03;;;;;;;53.08;26.48;;;;;;;12.73;100.00;100590.63;4959725;29;20050;-88
2022/10/14 06:05:30;;;;;;;44.22;25.38;;;;;;;12.82;100.00;100598.41;4944848;29;20054;-90
2022/10/14 06:07:56;;;;;;;48.85;24.27;;;;;;;13.18;100.00;100597.88;4943837;29;20028;-92
2022/10/14 06:10:22;;;;;;;47.63;22.73;;;;;;;13.50;100.00;100604.78;4946728;29;20429;-92
2022/10/14 06:12:53;;;;;;;46.90;24.25;;;;;;;13.48;100.00;100597.00;4938931;29;20046;-88
2022/10/14 06:15:22;;;;;;;43.55;23.58;;;;;;;13.72;100.00;100601.28;4937835;29;20039;-87
2022/10/14 06:17:51;;;;;;;42.63;24.42;;;;;;;14.09;100.00;100603.88;4941691;29;20083;-91
2022/10/14 06:20:25;;;;;;;47.65;23.80;;;;;;;14.07;100.00;100602.41;4915971;29;20035;-91
2022/10/14 06:22:51;;;;;;;51.55;25.10;;;;;;;14.32;100.00;100606.47;4937057;29;20032;-89
2022/10/14 06:25:19;;;;;;;40.80;23.30;;;;;;;14.69;100.00;100603.72;4938161;29;20106;-90
2022/10/14 06:27:47;;;;;;;45.65;24.05;;;;;;;14.62;100.00;100613.47;4922773;29;20087;-89
2022/10/14 06:30:13;;;;;;;42.45;22.52;;;;;;;14.61;100.00;100606.50;4940684;29;20023;-91
2022/10/14 06:32:38;;;;;;;40.72;23.52;;;;;;;14.48;100.00;100607.13;4940201;29;20030;-88
2022/10/14 06:35:05;;;;;;;45.55;22.98;;;;;;;14.14;100.00;100614.00;4946043;29;20043;-89
2022/10/14 06:37:33;;;;;;;45.72;23.58;;;;;;;14.34;100.00;100610.66;4947752;29;20071;-88
2022/10/14 06:39:59;;;;;;;47.03;23.20;;;;;;;15.01;100.00;100618.47;4944771;29;20040;-89
2022/10/14 06:42:26;;;;;;;42.67;22.30;;;;;;;15.40;100.00;100616.22;4947606;29;20038;-89
2022/10/14 06:44:53;;;;;;;42.25;22.10;;;;;;;15.75;100.00;100622.50;4953831;29;20042;-90
2022/10/14 06:47:22;;;;;;;41.70;22.45;;;;;;;15.75;100.00;100622.50;4928698;29;20040;-90
2022/10/14 06:49:48;;;;;;;37.63;22.17;;;;;;;16.56;100.00;100637.06;4942852;29;20067;-88
2022/10/14 06:52:22;;;;;;;42.10;20.92;;;;;;;16.59;100.00;100646.56;4943355;29;20043;-90
2022/10/14 06:54:48;;;;;;;47.63;22.20;;;;;;;16.44;100.00;100635.94;4941737;29;20048;-91
2022/10/14 06:57:14;;;;;;;44.83;21.42;;;;;;;16.37;100.00;100643.13;4938708;29;20161;-90
2022/10/14 06:59:40;;;;;;;43.97;20.77;;;;;;;16.53;100.00;100648.16;5414766;23;20051;-89
2022/10/14 07:02:05;;;;;;;43.95;20.77;;;;;;;16.98;100.00;100642.19;4943920;29;20035;-89
2022/10/14 07:04:31;;;;;;;38.47;21.55;;;;;;;16.99;100.00;100646.53;4939544;29;20163;-89
2022/10/14 07:09:40;;;;;;;40.72;18.08;;;;;;;17.43;100.00;100635.28;4963200;23;20052;-90
2022/10/14 07:12:05;;;;;;;41.28;20.33;;;;;;;17.29;100.00;100640.84;4923634;29;20044;-90
2022/10/14 07:14:31;;;;;;;41.70;20.30;;;;;;;16.92;100.00;100643.00;4942489;29;20039;-88
2022/10/14 07:17:00;;;;;;;39.70;19.88;;;;;;;17.26;100.00;100650.13;4941079;29;20044;-91
2022/10/14 07:19:25;;;;;;;39.40;20.13;;;;;;;16.88;100.00;100647.09;4945583;29;20106;-89
2022/10/14 07:21:51;;;;;;;45.22;20.80;;;;;;;17.01;100.00;100652.50;4944327;29;20063;-90
2022/10/14 07:24:16;;;;;;;38.63;20.52;;;;;;;16.96;100.00;100654.97;4955772;29;20031;-89
2022/10/14 07:26:42;;;;;;;37.58;21.10;;;;;;;16.92;100.00;100655.56;4959283;29;20108;-91
2022/10/14 07:29:11;;;;;;;39.35;20.70;;;;;;;17.30;100.00;100658.59;4959121;29;20035;-90
2022/10/14 07:31:37;;;;;;;41.35;21.08;;;;;;;17.80;100.00;100663.41;4950531;29;20024;-85
2022/10/14 07:34:02;;;;;;;48.08;20.83;;;;;;;17.92;100.00;100660.97;4941254;29;20032;-89
2022/10/14 07:36:28;;;;;;;34.35;20.00;;;;;;;18.17;100.00;100658.44;4941044;29;20478;-88
2022/10/14 07:38:53;;;;;;;35.55;20.33;;;;;;;18.68;100.00;100667.47;4915639;29;20063;-90
2022/10/14 07:41:22;;;;;;;36.35;20.02;;;;;;;17.84;100.00;100667.34;4930725;29;20099;-85
2022/10/14 07:44:05;;;;;;;40.78;20.95;;;;;;;17.81;100.00;100665.06;4936647;29;20115;-86
2022/10/14 07:46:37;;;;;;;46.92;21.60;;;;;;;18.24;100.00;100667.31;4935455;29;20040;-87
2022/10/14 07:49:07;;;;;;;;;;;;;;;18.12;100.00;100661.78;4939925;29;20034;-86
2022/10/14 07:51:34;;;;;;;51.85;20.10;;;;;;;17.93;100.00;100666.09;4926751;29;19925;-85
2022/10/14 07:54:02;;;;;;;37.95;19.25;;;;;;;17.94;100.00;100665.06;4932191;29;20107;-88
2022/10/14 07:56:34;;;;;;;39.40;19.65;;;;;;;17.65;100.00;100667.31;4926093;29;20114;-85
2022/10/14 07:59:00;;;;;;;38.08;20.58;;;;;;;17.98;100.00;100677.03;4937914;29;20070;-86
2022/10/14 08:01:25;;;;;;;38.47;20.45;;;;;;;18.18;100.00;100681.56;4940958;29;20071;-87
2022/10/14 08:03:51;;;;;;;38.58;19.55;;;;;;;18.53;100.00;100686.50;4941447;29;20031;-86
2022/10/14 08:06:16;;;;;;;37.97;20.23;;;;;;;19.15;100.00;100689.63;4939454;29;20406;-86
2022/10/14 08:08:42;;;;;;;32.30;17.92;;;;;;;19.55;100.00;100691.09;4941509;29;20036;-86
2022/10/14 08:11:12;;;;;;;37.58;19.05;;;;;;;19.24;100.00;100694.53;4939048;29;20056;-86
2022/10/14 08:13:39;;;;;;;37.80;18.73;;;;;;;19.02;100.00;100696.69;4939543;29;20040;-87
2022/10/14 08:16:32;;;;;;;29.38;17.48;;;;;;;19.10;100.00;100693.75;4940042;29;20099;-86
2022/10/14 08:19:05;;;;;;;35.00;17.08;;;;;;;19.00;100.00;100687.19;4922723;29;20063;-86
2022/10/14 08:21:31;;;;;;;36.20;18.30;;;;;;;18.77;100.00;100686.84;4935025;29;20039;-86
2022/10/14 08:24:00;;;;;;;33.92;17.10;;;;;;;18.79;100.00;100680.22;4939931;29;20054;-87
2022/10/14 08:26:30;;;;;;;35.72;17.70;;;;;;;19.43;100.00;100682.03;4942524;29;20032;-84
2022/10/14 08:29:00;;;;;;;38.25;17.42;;;;;;;19.12;100.00;100684.66;4937506;29;20067;-86
2022/10/14 08:31:26;;;;;;;35.80;19.48;;;;;;;19.20;100.00;100685.25;4923633;29;20074;-86
2022/10/14 08:33:52;;;;;;;38.17;18.73;;;;;;;19.36;100.00;100686.59;4939962;29;20442;-86
2022/10/14 08:36:22;;;;;;;37.47;18.95;;;;;;;19.59;100.00;100686.91;4939501;29;20433;-85
2022/10/14 08:38:52;;;;;;;38.95;18.10;;;;;;;19.63;100.00;100682.75;4941667;29;20102;-89
2022/10/14 08:42:03;;;;;;;33.25;19.13;;;;;;;19.69;100.00;100681.88;4941372;29;20040;-86
2022/10/14 08:44:56;;;;;;;41.97;19.85;;;;;;;19.69;100.00;100683.75;4898044;29;20146;-86
2022/10/14 08:48:01;;;;;;;39.83;19.17;;;;;;;19.70;100.00;100682.69;4933517;29;20039;-86
2022/10/14 08:50:44;;;;;;;30.88;18.05;;;;;;;19.37;100.00;100690.94;4950811;28;20030;-87
2022/10/14 08:53:21;;;;;;;42.80;19.15;;;;;;;19.62;100.00;100691.84;4971735;28;20077;-87
2022/10/14 08:55:59;;;;;;;34.78;19.08;;;;;;;19.39;100.00;100696.94;4925383;29;20098;-85
2022/10/14 08:58:43;;;;;;;27.80;17.73;;;;;;;19.47;100.00;100710.97;4924714;29;20040;-87
2022/10/14 09:01:26;;;;;;;35.67;17.20;;;;;;;19.80;100.00;100699.19;4939223;29;20042;-83
2022/10/14 09:04:00;;;;;;;35.35;18.13;;;;;;;20.00;100.00;100699.84;4949986;29;20044;-88
2022/10/14 09:06:34;;;;;;;37.70;17.52;;;;;;;19.96;100.00;100709.41;4957584;29;20035;-90
2022/10/14 09:09:34;;;;;;;29.17;15.25;;;;;;;19.99;100.00;100700.88;4952405;29;20035;-88
2022/10/14 09:12:03;;;;;;;31.52;15.15;;;;;;;19.79;100.00;100709.13;4935136;29;20047;-87
2022/10/14 09:14:35;;;;;;;36.83;15.18;;;;;;;19.88;100.00;100707.81;4936555;29;20040;-87
2022/10/14 09:17:12;;;;;;;34.20;14.38;;;;;;;20.05;100.00;100708.91;4931780;29;20099;-86
2022/10/14 09:19:47;;;;;;;31.90;16.95;;;;;;;19.88;100.00;100705.13;4941788;29;20031;-87
2022/10/14 09:22:14;;;;;;;30.15;15.85;;;;;;;19.65;100.00;100701.38;4937783;29;20043;-87
2022/10/14 09:24:41;;;;;;;36.17;17.15;;;;;;;19.56;100.00;100700.78;4946179;29;20095;-89
2022/10/14 09:27:11;;;;;;;32.13;18.08;;;;;;;19.55;100.00;100696.47;4944202;29;20079;-84
2022/10/14 09:29:49;;;;;;;37.65;19.13;;;;;;;19.29;100.00;100702.75;4909001;29;20453;-88
2022/10/14 09:32:23;;;;;;;38.70;19.50;;;;;;;19.23;100.00;100702.78;4939373;29;20036;-85
2022/10/14 09:34:51;;;;;;;47.67;21.98;;;;;;;19.29;100.00;100699.28;4938469;29;20397;-86
2022/10/14 09:37:25;;;;;;;42.63;21.25;;;;;;;19.33;100.00;100692.41;4939125;29;20098;-84
2022/10/14 09:39:54;;;;;;;47.70;22.30;;;;;;;19.41;100.00;100694.88;4938099;29;20039;-88
2022/10/14 09:42:25;;;;;;;41.78;21.25;;;;;;;19.79;100.00;100687.59;4925440;29;20043;-86
2022/10/14 09:45:14;;;;;;;45.72;22.77;;;;;;;19.79;100.00;100684.91;4940600;29;20036;-86
2022/10/14 09:47:49;;;;;;;43.95;23.02;;;;;;;20.48;100.00;100692.03;4934171;29;20110;-88
2022/10/14 09:50:24;;;;;;;44.50;23.92;;;;;;;20.86;98.25;100689.94;4938743;29;20438;-85
2022/10/14 09:52:54;;;;;;;52.70;24.25;;;;;;;20.94;97.65;100691.50;4937261;29;20039;-84
2022/10/14 09:55:23;;;;;;;51.08;24.13;;;;;;;21.33;94.23;100690.19;4939774;29;20055;-86
2022/10/14 09:58:12;;;;;;;54.15;23.98;;;;;;;21.52;93.84;100689.09;4937979;29;20083;-87
2022/10/14 10:00:39;;;;;;;45.72;22.55;;;;;;;22.45;88.60;100691.97;4938190;29;20051;-86
2022/10/14 10:03:05;;;;;;;53.10;23.90;;;;;;;22.92;83.51;100696.28;4936866;29;20032;-87
2022/10/14 10:05:34;;;;;;;55.95;24.00;;;;;;;23.16;82.07;100703.28;4938846;29;20036;-86
2022/10/14 10:08:13;;;;;;;49.97;23.35;;;;;;;23.59;79.99;100696.56;4939561;29;20046;-87
2022/10/14 10:10:39;;;;;;;51.20;23.25;;;;;;;23.74;79.97;100699.53;4943342;29;20454;-86
2022/10/14 10:13:31;;;;;;;54.45;27.05;;;;;;;24.42;75.74;100703.91;4947902;29;20040;-85
2022/10/14 10:15:58;;;;;;;57.22;26.00;;;;;;;24.39;76.15;100704.41;4939129;29;20054;-86
2022/10/14 10:18:25;;;;;;;49.55;26.33;;;;;;;24.25;76.60;100694.97;4922667;29;20040;-87
2022/10/14 10:21:23;;;;;;;48.20;23.85;;;;;;;24.59;74.60;100691.97;4941444;29;20032;-88
2022/10/14 10:23:55;;;;;;;52.80;25.92;;;;;;;24.48;75.10;100694.78;4930387;29;20111;-88
2022/10/14 10:26:28;;;;;;;31.70;18.20;;;;;;;23.88;75.85;100692.72;4935092;29;20046;-86
2022/10/14 10:28:58;;;;;;;49.65;25.88;;;;;;;23.31;78.99;100681.13;4939537;29;20098;-86
2022/10/14 10:31:39;;;;;;;51.25;24.77;;;;;;;23.14;79.57;100678.34;4945302;29;20036;-86
2022/10/14 10:34:20;;;;;;;49.17;24.02;;;;;;;22.77;83.82;100670.84;4946127;29;20052;-85
2022/10/14 10:36:57;;;;;;;56.85;25.40;;;;;;;22.37;84.66;100666.13;4946065;29;20095;-84
2022/10/14 10:39:55;;;;;;;44.97;24.52;;;;;;;22.24;84.88;100654.78;4947292;29;20111;-85
2022/10/14 10:42:50;;;;;;;43.40;24.15;;;;;;;22.01;86.03;100661.78;4941922;29;20043;-86
2022/10/14 10:45:35;;;;;;;52.38;25.25;;;;;;;21.71;87.16;100655.59;4943941;29;20042;-86
2022/10/14 10:48:26;;;;;;;46.67;24.33;;;;;;;21.89;85.67;100657.41;4928056;29;20039;-86
2022/10/14 10:51:06;;;;;;;49.70;25.70;;;;;;;21.48;88.03;100659.06;4929172;29;20039;-85
2022/10/14 10:53:54;;;;;;;42.10;22.92;;;;;;;21.39;87.81;100656.94;4947221;29;20048;-85
2022/10/14 10:56:23;;;;;;;49.03;25.23;;;;;;;21.39;88.17;100651.53;4939544;29;20031;-86
2022/10/14 10:59:05;;;;;;;47.03;23.03;;;;;;;21.68;88.25;100650.69;4933898;29;20402;-87
2022/10/14 11:01:53;;;;;;;48.33;24.17;;;;;;;21.69;88.90;100648.81;4941561;29;20283;-86
2022/10/14 11:04:49;;;;;;;38.90;21.77;;;;;;;21.76;89.11;100636.88;4951707;29;20119;-88
2022/10/14 11:13:36;;;;;;;38.35;22.33;;;;;;;22.15;82.90;100616.50;4945769;29;20051;-87
2022/10/14 11:16:45;;;;;;;40.83;22.23;;;;;;;21.47;85.41;100617.00;4947277;29;20075;-85
2022/10/14 11:19:19;;;;;;;43.33;20.98;;;;;;;21.79;83.11;100614.81;4871282;29;20053;-87
2022/10/14 11:22:04;;;;;;;36.92;21.10;;;;;;;21.99;82.09;100607.22;4871427;29;20111;-87
2022/10/14 11:25:21;;;;;;;45.15;20.95;;;;;;;21.45;88.68;100599.38;4952138;29;20065;-85
2022/10/14 11:28:37;;;;;;;39.55;22.45;;;;;;;21.51;86.32;100599.28;4879896;29;20053;-84
2022/10/14 11:31:39;;;;;;;51.97;22.43;;;;;;;21.44;88.03;100592.34;4875102;29;20046;-86
2022/10/14 11:34:28;;;;;;;40.85;22.13;;;;;;;21.70;85.98;100600.03;4882879;29;20096;-85
2022/10/14 11:37:14;;;;;;;37.85;19.67;;;;;;;21.71;84.06;100585.47;4859673;29;20042;-88
2022/10/14 11:40:00;;;;;;;40.67;23.42;;;;;;;21.88;83.44;100585.59;4937668;29;20040;-89
2022/10/14 11:42:54;;;;;;;35.95;19.25;;;;;;;21.97;81.91;100579.66;4947630;29;20054;-91
2022/10/14 11:45:45;;;;;;;36.90;19.42;;;;;;;22.13;81.10;100584.34;4944425;29;20044;-88
2022/10/14 11:48:32;;;;;;;43.40;22.67;;;;;;;22.42;79.52;100579.00;4935668;29;20035;-88
2022/10/14 11:51:29;;;;;;;39.63;21.25;;;;;;;22.94;76.44;100580.63;4942162;29;20040;-87
2022/10/14 11:54:16;;;;;;;36.85;19.08;;;;;;;23.13;72.73;100576.66;4894036;29;20076;-87
2022/10/14 11:57:01;;;;;;;35.75;17.67;;;;;;;23.38;71.38;100568.19;4946962;29;20035;-86
2022/10/14 12:00:01;;;;;;;40.13;20.55;;;;;;;23.30;72.21;100559.66;4938582;29;20095;-87
2022/10/14 12:02:45;;;;;;;32.78;17.92;;;;;;;23.26;73.37;100564.75;4944565;29;20059;-87
2022/10/14 12:05:32;;;;;;;38.47;19.85;;;;;;;22.73;75.05;100551.59;4938262;29;20095;-86
2022/10/14 12:08:15;;;;;;;36.20;19.25;;;;;;;22.41;78.29;100547.66;4936192;29;20319;-87
2022/10/14 12:10:57;;;;;;;40.13;19.38;;;;;;;22.39;76.97;100555.19;4938154;29;20470;-86
2022/10/14 12:13:35;;;;;;;35.58;16.70;;;;;;;22.44;77.83;100553.41;4938157;29;20036;-87
2022/10/14 12:16:13;;;;;;;34.40;18.73;;;;;;;22.59;77.70;100547.50;4930895;29;20040;-86
2022/10/14 12:18:41;;;;;;;36.10;18.75;;;;;;;22.76;77.66;100548.41;4932035;29;20048;-85
2022/10/14 12:21:18;;;;;;;39.10;19.55;;;;;;;22.79;78.21;100545.22;4933117;29;20035;-86
2022/10/14 12:23:54;;;;;;;34.03;18.55;;;;;;;22.87;77.90;100542.13;4940028;29;20079;-85
2022/10/14 12:26:19;;;;;;;45.65;21.17;;;;;;;22.86;77.90;100540.50;4941660;29;20442;-81
2022/10/14 12:28:46;;;;;;;41.45;23.00;;;;;;;22.76;78.72;100539.47;4931857;29;20052;-86
2022/10/14 12:31:46;;;;;;;46.22;25.27;;;;;;;22.57;79.83;100546.94;4923844;29;20044;-89
2022/10/14 12:34:17;;;;;;;41.15;23.92;;;;;;;22.46;79.92;100542.38;4883264;29;20057;-85
2022/10/14 12:36:49;;;;;;;47.90;24.10;;;;;;;22.31;81.79;100542.03;4884142;29;20127;-85
2022/10/14 12:39:17;;;;;;;43.95;24.30;;;;;;;22.17;82.28;100542.28;4877587;29;20041;-85
2022/10/14 12:42:16;;;;;;;44.60;23.50;;;;;;;22.11;82.76;100535.16;4898912;29;20453;-87
2022/10/14 12:44:50;;;;;;;42.22;22.50;;;;;;;22.23;82.13;100523.53;4924055;29;20043;-88
2022/10/14 12:47:21;;;;;;;42.88;22.63;;;;;;;22.03;83.28;100516.63;4944131;29;20040;-89
2022/10/14 12:49:53;;;;;;;42.90;22.70;;;;;;;22.03;82.71;100513.94;4943635;29;20058;-85
2022/10/14 12:52:29;;;;;;;41.42;21.65;;;;;;;22.08;82.32;100510.50;4953710;29;20031;-86